LiveATC.Net - Listen to live air traffic control over the Internet! Contact LiveATC.net for advertising information

Find LiveATC Audio Streams


Airport/ARTCC Code

Frequency
(e.g., 124.400, 128.75)
Site-wide search

Browse LiveATC Feeds
LiveATC Coverage Map
Top 50 LiveATC Feeds
Bad Weather Areas

LiveATC FAQ
Offer a LiveATC Feed
Contact LiveATC.net
Press Inquiries

LiveATC on iPhone
LiveATC on Android

LiveATC Mobile
(Mobile browser)

ATC Audio Archives
Interesting Recordings

LiveATC Forums

Home Page
About LiveATC.net
Make a Donation
LiveATC Bookstore

Terms of Use
Privacy Policy

ATC/Radar Sites
U.S. ARTCC Freqs
Canadian Air Freqs

AIRMETs/SIGMETs

FAA Airport Status
Nat'l Airspace Status
Arrival Demand Charts


Server Software By:
Icecast.org
Liquidsoap


Current Potentially Bad Weather Airports
(updated every 30 minutes - sorted alphabetically by ICAO code)



This page lists LiveATC.net airport areas that may be interesting to listen to because of challenging flying (weather) conditions. Challenging weather conditions include low ceilings, limited visibility, high or gusty winds, or thunderstorms. This is an evolving new feature and comments are welcome.

Updated: Mon May 25 05:10:01 UTC 2015
Click on airport name to go to that airport area's feeds.

CYYT Gnd/Twr/Gander Center
WX MAP UNAVAILABLECYYT 250400Z 24025G39KT 15SM BKN018 OVC028 08/05 A3016 RMK SC6SC2 SLP217
KATW Gnd/Twr/App
katwKATW 250435Z AUTO 11007KT 7SM RA OVC004 13/13 A2992 RMK AO2 P0001
KBMI Gnd/Twr/App/Ops
kbmiKBMI 250456Z AUTO 17020G30KT 10SM CLR 24/19 A2992 RMK AO2 T02440188 PK WND 17030/0450 SLP117
KBTR/KHZR/L38 Del/Gnd/Twr/App/CTAF
khzrKHZR 250435Z AUTO 09003KT 10SM SCT055 SCT090 22/21 A3003 RMK AO2 LTG DSNT NE T02150210
KANE Twr/KCFE CTAF
kaneKANE 250454Z AUTO 08008KT 5SM DZ OVC009 15/15 A2979 RMK AO2 P0003
KDEC Tower/Ground
kdecKDEC 250454Z AUTO 21025G40KT 4SM +RA SCT033 BKN075 OVC090 21/18 A2997 RMK AO2 PK WND 21040/0451 RAB47 SLP142 P0005 T02110178 TSNO
KEAU Tower
keauKEAU 250456Z AUTO VRB05KT 10SM OVC006 14/13 A2982 RMK AO2 RAB25E34 SLP098 P0000 T01390128 $
KFCM Tower
kfcmKFCM 250453Z AUTO 08008KT 3SM -RA BR OVC006 14/14 A2976 RMK AO2 CIG 003V009 SLP077 P0004 T01440139
KFSD Twr/App/Dep/ZMP
kfsdKFSD 250456Z 33004KT 10SM OVC007 15/14 A2977 RMK AO2 SLP081 T01500144
KGEG Tower
kgegKGEG 250453Z 33010KT 10SM SCT060 OVC200 19/08 A2985 RMK AO2 SLP095 LTG DSNT N-NE CB DSNT N-NE T01890078
KGRB Del/Gnd/Twr/App
kgrbKGRB 250453Z 09006KT 3SM -RA BR OVC007 14/14 A2992 RMK AO2 RAB23 SLP131 P0002 T01440139
KHDC De/Gnd/Twr/App/ZHU
khdcKHDC 250435Z AUTO 12004KT 10SM SCT033 SCT050 BKN100 23/20 A3006 RMK AO2 LTG DSNT NE P0001
KHND Ground/Tower
khndKHND 250456Z AUTO 36016KT 10SM BKN095 22/12 A2988 RMK AO2 LTG DSNT N SLP102 T02170117
KHWD Ground/Tower
khwdKHWD 250454Z 26009KT 10SM OVC009 13/11 A3000 RMK AO2 SLP168 T01280106
KMEM Approach
kmemKMEM 250454Z 17004KT 7SM TSRA SCT007 OVC012CB 21/19 A3004 RMK AO2 TSB35E50B54RAE02B34 SLP166 OCNL LTGIC N TS N MOV NE P0003 T02110194
KMIC Tower/CTAF
kmicKMIC 250453Z AUTO 08006KT 3SM -RA BR OVC006 15/14 A2977 RMK AO2 CIG 004V012 SLP080 P0005 T01500139 TSNO
KMSN Twr/App
kmsnKMSN 250453Z AUTO 12004KT 4SM BR OVC007 16/14 A2986 RMK AO2 CIG 005V011 SLP112 T01560144
KMSP Minneapolis App
kmspKMSP 250453Z 07008KT 3SM -RA BR OVC005 14/14 A2978 RMK AO2 SLP082 P0006 T01440139
KPVU Tower
kpvuKPVU 250455Z AUTO 00000KT 10SM SCT060 13/06 A2993 RMK AO1 LTG DSNT NW
KPWA Gnd/Twr/App
kpwaKPWA 250453Z AUTO 14014KT 10SM OVC005 18/17 A2987 RMK AO2 SLP105 T01830172
KRNH CTAF/Clearance
krnhKRNH 250435Z AUTO 09007KT 4SM RA SCT005 OVC009 14/14 A2981 RMK AO2 P0002 T01380138
KRST Gnd/Twr/App
krstKRST 250454Z AUTO 12009KT 5SM BR OVC004 15/14 A2979 RMK AO2 RAB22E46 SLP086 P0000 T01500144
KRVS Tower
krvsKRVS 250453Z AUTO 00000KT 5SM BR OVC002 16/16 A2990 RMK AO2 SLP130 T01610161
KSAW Gnd/Twr/ZMP
WX MAP UNAVAILABLEKSAW 250457Z AUTO 19006KT 10SM -RA OVC005 13/12 A2999 RMK AO2 P0002 T01310121
KSLC Approach/Departure
kslcKSLC 250453Z 27003KT 6SM TSRA SCT033 BKN043CB BKN055 12/09 A2993 RMK AO2 PK WND 33026/0427 WSHFT 0419 RAB0357E08B29 TSB06 SLP109 OCNL LTGICCC SW MOV S P0010 T01220094 $
KSTS Tower
kstsKSTS 250453Z AUTO 14008KT 10SM OVC008 12/09 A2994 RMK AO2 SLP132 T01170094
KSUX Twr/App/ZMP
ksuxKSUX 250452Z 00000KT 1/2SM R31/1800V6000FT FG VV005 16/15 A2977 RMK AO2 SLP079 T01610150
KTUL Del/Gnd/Twr/App
ktulKTUL 250453Z 16007KT 10SM OVC003 17/17 A2989 RMK AO2 SLP117 T01670167
KUOX CTAF/ZME
kuoxKUOX 250435Z AUTO 20008G14KT 020V020 5SM BKN001 BKN014 OVC037 18/17 A3009 RMK AO2 LTG DSNT ALQDS PWINO PNO
KWVI CTAF/NORCAL App #2
kwviKWVI 250453Z AUTO 06006KT 10SM OVC009 12/11 A3000 RMK AO2 SLP159 T01220106
LBBG Twr/App
WX MAP UNAVAILABLELBBG 250500Z 08006KT 9999 OVC009 17/16 Q1010 NOSIG
PASC CTAF/Unicom/AFIS/App
WX MAP UNAVAILABLEPASC 250453Z 09015KT 8SM OVC003 01/M01 A3000 RMK AO2 SLP160 T00061011
ZHU Houston Center (New Orleans area)
kmsyKMSY 250453Z 15009KT 10SM FEW025 BKN100 OVC200 26/21 A3004 RMK AO2 TSE43 SLP174 OCNL LTGICCA DSNT NE SW NW CB DSNT NE SW NW T02560211